createdAt,value
2019-04-28T00:00:03.239Z,7.83
2019-04-28T00:01:03.251Z,7.82
2019-04-28T00:02:03.221Z,7.82
2019-04-28T00:03:04.239Z,7.85
2019-04-28T00:04:03.530Z,7.86
2019-04-28T00:05:03.180Z,7.85
2019-04-28T00:06:03.165Z,7.82
2019-04-28T00:07:03.182Z,7.85
2019-04-28T00:08:03.153Z,7.79
2019-04-28T00:09:03.501Z,7.86
2019-04-28T00:10:03.132Z,7.79
2019-04-28T00:11:03.123Z,7.87
2019-04-28T00:12:03.104Z,7.83
2019-04-28T00:13:03.094Z,7.85
2019-04-28T00:14:03.239Z,7.85
2019-04-28T00:15:03.104Z,7.80
2019-04-28T00:16:03.056Z,7.86
2019-04-28T00:17:03.047Z,7.89
2019-04-28T00:18:04.199Z,7.85
2019-04-28T00:19:04.477Z,7.87
2019-04-28T00:20:03.021Z,7.89
2019-04-28T00:21:03.018Z,7.83
2019-04-28T00:22:03.035Z,7.83
2019-04-28T00:23:03.834Z,7.85
2019-04-28T00:24:04.181Z,7.80
2019-04-28T00:25:02.963Z,7.77
2019-04-28T00:26:02.958Z,7.82
2019-04-28T00:27:02.941Z,7.83
2019-04-28T00:28:02.937Z,7.79
2019-04-28T00:29:04.185Z,7.77
2019-04-28T00:30:02.925Z,7.87
2019-04-28T00:31:02.896Z,7.79
2019-04-28T00:32:02.894Z,7.82
2019-04-28T00:33:02.882Z,7.72
2019-04-28T00:34:04.108Z,7.82
2019-04-28T00:35:02.882Z,7.83
2019-04-28T00:36:02.859Z,7.80
2019-04-28T00:37:02.835Z,7.77
2019-04-28T00:38:02.829Z,7.85
2019-04-28T00:39:05.222Z,7.77
2019-04-28T00:40:02.830Z,7.80
2019-04-28T00:41:02.797Z,7.83
2019-04-28T00:42:03.326Z,7.79
2019-04-28T00:43:02.777Z,7.75
2019-04-28T00:44:02.779Z,7.77
2019-04-28T00:45:02.757Z,7.79
2019-04-28T00:46:02.753Z,7.80
2019-04-28T00:47:02.734Z,7.80
2019-04-28T00:48:02.717Z,7.71
2019-04-28T00:49:04.288Z,7.75
2019-04-28T00:50:02.698Z,7.71
2019-04-28T00:51:02.703Z,7.80
2019-04-28T00:52:03.062Z,7.71
2019-04-28T00:53:02.679Z,7.77
2019-04-28T00:54:03.219Z,7.79
2019-04-28T00:55:02.682Z,7.74
2019-04-28T00:56:02.633Z,7.80
2019-04-28T00:57:02.635Z,7.77
2019-04-28T00:58:02.610Z,7.75
2019-04-28T00:59:04.256Z,7.75
2019-04-28T01:00:02.688Z,7.69
2019-04-28T01:01:02.628Z,7.74
2019-04-28T01:02:02.578Z,7.79
2019-04-28T01:03:02.583Z,7.71
2019-04-28T01:04:04.115Z,7.67
2019-04-28T01:05:02.541Z,7.68
2019-04-28T01:06:02.531Z,7.77
2019-04-28T01:07:02.524Z,7.61
2019-04-28T01:08:02.508Z,7.77
2019-04-28T01:09:03.862Z,7.68
2019-04-28T01:10:03.744Z,7.69
2019-04-28T01:11:02.478Z,7.69
2019-04-28T01:12:02.462Z,7.69
2019-04-28T01:13:02.452Z,7.64
2019-04-28T01:14:02.465Z,7.52
2019-04-28T01:15:04.935Z,7.61
2019-04-28T01:16:02.433Z,7.64
2019-04-28T01:17:02.422Z,7.67
2019-04-28T01:18:02.405Z,7.61
2019-04-28T01:19:02.386Z,7.64
2019-04-28T01:20:04.552Z,7.67
2019-04-28T01:21:02.382Z,7.63
2019-04-28T01:22:02.368Z,7.63
2019-04-28T01:23:02.350Z,7.68
2019-04-28T01:24:02.335Z,7.71
2019-04-28T01:25:04.493Z,7.61
2019-04-28T01:26:02.329Z,7.69
2019-04-28T01:27:02.309Z,7.61
2019-04-28T01:28:02.320Z,7.69
2019-04-28T01:29:02.290Z,7.63
2019-04-28T01:30:08.627Z,7.64
2019-04-28T01:31:03.261Z,7.63
2019-04-28T01:32:02.248Z,7.75
2019-04-28T01:33:02.240Z,7.74
2019-04-28T01:34:02.246Z,7.77
2019-04-28T01:35:04.385Z,7.63
2019-04-28T01:36:02.211Z,7.72
2019-04-28T01:37:02.196Z,7.74
2019-04-28T01:38:02.182Z,7.79
2019-04-28T01:39:02.191Z,7.71
2019-04-28T01:40:02.188Z,7.69
2019-04-28T01:41:02.197Z,7.69
2019-04-28T01:42:02.146Z,7.71
2019-04-28T01:43:02.133Z,7.74
2019-04-28T01:44:02.120Z,7.68
2019-04-28T01:45:03.280Z,7.71
2019-04-28T01:46:02.112Z,7.72
2019-04-28T01:47:02.118Z,7.79
2019-04-28T01:48:02.330Z,7.72
2019-04-28T01:49:02.091Z,7.72
2019-04-28T01:50:04.804Z,7.71
2019-04-28T01:51:02.046Z,7.71
2019-04-28T01:52:02.043Z,7.75
2019-04-28T01:53:02.056Z,7.77
2019-04-28T01:54:02.021Z,7.74
2019-04-28T01:55:03.156Z,7.72
2019-04-28T01:56:01.995Z,7.74
2019-04-28T01:57:01.982Z,7.72
2019-04-28T01:58:01.969Z,7.69
2019-04-28T01:59:02.003Z,7.74
2019-04-28T02:00:03.795Z,7.74
2019-04-28T02:01:01.944Z,7.82
2019-04-28T02:02:01.967Z,7.71
2019-04-28T02:03:02.136Z,7.79
2019-04-28T02:04:01.929Z,7.71
2019-04-28T02:05:04.327Z,7.69
2019-04-28T02:06:01.948Z,7.72
2019-04-28T02:07:01.878Z,7.63
2019-04-28T02:08:01.897Z,7.67
2019-04-28T02:09:01.858Z,7.67
2019-04-28T02:10:03.276Z,7.61
2019-04-28T02:11:01.866Z,7.69
2019-04-28T02:12:01.879Z,7.68
2019-04-28T02:13:01.815Z,7.63
2019-04-28T02:14:01.810Z,7.63
2019-04-28T02:15:01.796Z,7.63
2019-04-28T02:16:04.141Z,7.63
2019-04-28T02:17:01.780Z,7.63
2019-04-28T02:18:01.793Z,7.63
2019-04-28T02:19:01.768Z,7.61
2019-04-28T02:20:01.749Z,7.67
2019-04-28T02:21:04.283Z,7.53
2019-04-28T02:22:01.716Z,7.61
2019-04-28T02:23:01.717Z,7.63
2019-04-28T02:24:01.696Z,7.63
2019-04-28T02:25:01.719Z,7.63
2019-04-28T02:26:03.360Z,7.67
2019-04-28T02:27:01.686Z,7.60
2019-04-28T02:28:01.675Z,7.57
2019-04-28T02:29:01.698Z,7.58
2019-04-28T02:30:01.702Z,7.61
2019-04-28T02:31:03.197Z,7.63
2019-04-28T02:32:02.488Z,7.57
2019-04-28T02:33:01.947Z,7.63
2019-04-28T02:34:01.626Z,7.67
2019-04-28T02:35:01.895Z,7.50
2019-04-28T02:36:03.113Z,7.63
2019-04-28T02:37:02.025Z,7.52
2019-04-28T02:38:01.564Z,7.64
2019-04-28T02:39:01.541Z,7.57
2019-04-28T02:40:03.497Z,7.50
2019-04-28T02:41:04.169Z,7.53
2019-04-28T02:42:01.916Z,7.61
2019-04-28T02:43:01.503Z,7.55
2019-04-28T02:44:01.488Z,7.45
2019-04-28T02:45:01.540Z,7.52
2019-04-28T02:46:01.497Z,7.46
2019-04-28T02:47:01.524Z,7.53
2019-04-28T02:48:01.452Z,7.50
2019-04-28T02:49:01.426Z,7.52
2019-04-28T02:50:01.437Z,7.52
2019-04-28T02:51:03.372Z,7.42
2019-04-28T02:52:02.956Z,7.37
2019-04-28T02:53:01.898Z,7.50
2019-04-28T02:54:01.372Z,7.37
2019-04-28T02:55:03.199Z,7.46
2019-04-28T02:56:03.116Z,7.45
2019-04-28T02:57:01.510Z,7.53
2019-04-28T02:58:01.749Z,7.42
2019-04-28T02:59:01.337Z,7.53
2019-04-28T03:00:01.334Z,7.40
2019-04-28T03:01:13.026Z,7.46
2019-04-28T03:02:02.302Z,7.40
2019-04-28T03:03:01.702Z,7.46
2019-04-28T03:04:01.314Z,7.48
2019-04-28T03:05:01.270Z,7.43
2019-04-28T03:06:04.406Z,7.39
2019-04-28T03:07:01.565Z,7.45
2019-04-28T03:08:01.428Z,7.46
2019-04-28T03:09:01.222Z,7.37
2019-04-28T03:10:03.805Z,7.43
2019-04-28T03:11:04.310Z,7.39
2019-04-28T03:12:01.682Z,7.40
2019-04-28T03:13:01.546Z,7.42
2019-04-28T03:14:01.244Z,7.42
2019-04-28T03:15:01.216Z,7.49
2019-04-28T03:16:03.283Z,7.39
2019-04-28T03:17:01.158Z,7.37
2019-04-28T03:18:02.060Z,7.48
2019-04-28T03:19:01.495Z,7.45
2019-04-28T03:20:01.469Z,7.42
2019-04-28T03:21:03.870Z,7.46
2019-04-28T03:22:03.298Z,7.49
2019-04-28T03:23:01.298Z,7.43
2019-04-28T03:24:01.369Z,7.40
2019-04-28T03:25:01.092Z,7.40
2019-04-28T03:26:01.545Z,7.45
2019-04-28T03:27:03.648Z,7.35
2019-04-28T03:28:01.103Z,7.45
2019-04-28T03:29:01.152Z,7.45
2019-04-28T03:30:01.166Z,7.46
2019-04-28T03:31:06.472Z,7.48
2019-04-28T03:32:28.681Z,7.40
2019-04-28T03:33:10.733Z,7.37
2019-04-28T03:34:03.879Z,7.37
2019-04-28T03:35:02.975Z,7.34
2019-04-28T03:36:07.136Z,7.43
2019-04-28T03:37:04.272Z,7.35
2019-04-28T03:38:01.352Z,7.48
2019-04-28T03:39:00.941Z,7.34
2019-04-28T03:40:00.884Z,7.39
2019-04-28T03:41:01.213Z,7.39
2019-04-28T03:42:03.432Z,7.48
2019-04-28T03:43:03.183Z,7.40
2019-04-28T03:44:00.841Z,7.43
2019-04-28T03:45:01.089Z,7.37
2019-04-28T03:46:03.533Z,7.37
2019-04-28T03:47:03.216Z,7.37
2019-04-28T03:48:00.822Z,7.37
2019-04-28T03:49:00.995Z,7.35
2019-04-28T03:50:00.787Z,7.32
2019-04-28T03:51:00.890Z,7.31
2019-04-28T03:52:01.143Z,7.34
2019-04-28T03:53:01.176Z,7.28
2019-04-28T03:54:02.968Z,7.34
2019-04-28T03:55:00.816Z,7.30
2019-04-28T03:56:01.643Z,7.24
2019-04-28T03:57:03.127Z,7.21
2019-04-28T03:58:01.047Z,7.24
2019-04-28T03:59:00.682Z,7.27
2019-04-28T04:00:01.711Z,7.24
2019-04-28T04:01:03.246Z,7.25
2019-04-28T04:02:04.272Z,7.24
2019-04-28T04:03:00.967Z,7.27
2019-04-28T04:04:01.262Z,7.15
2019-04-28T04:05:03.855Z,7.25
2019-04-28T04:06:00.956Z,7.20
2019-04-28T04:07:05.552Z,7.25
2019-04-28T04:08:01.050Z,7.25
2019-04-28T04:09:00.594Z,7.20
2019-04-28T04:10:01.063Z,7.24
2019-04-28T04:11:00.559Z,7.21
2019-04-28T04:12:03.503Z,7.16
2019-04-28T04:13:04.251Z,7.27
2019-04-28T04:14:01.656Z,7.23
2019-04-28T04:15:01.458Z,7.24
2019-04-28T04:16:01.669Z,7.16
2019-04-28T04:17:00.494Z,7.17
2019-04-28T04:18:04.787Z,7.21
2019-04-28T04:19:00.844Z,7.27
2019-04-28T04:20:01.775Z,7.25
2019-04-28T04:21:00.931Z,7.23
2019-04-28T04:22:00.449Z,7.28
2019-04-28T04:23:04.185Z,7.21
2019-04-28T04:24:01.226Z,7.27
2019-04-28T04:25:01.307Z,7.24
2019-04-28T04:26:01.814Z,7.20
2019-04-28T04:27:00.965Z,7.23
2019-04-28T04:28:04.355Z,7.23
2019-04-28T04:29:01.087Z,7.21
2019-04-28T04:30:01.754Z,7.24
2019-04-28T04:31:02.891Z,7.28
2019-04-28T04:32:13.519Z,7.28
2019-04-28T04:33:03.259Z,7.34
2019-04-28T04:34:03.025Z,7.30
2019-04-28T04:35:00.873Z,7.30
2019-04-28T04:36:01.545Z,7.31
2019-04-28T04:37:00.814Z,7.32
2019-04-28T04:38:04.201Z,7.32
2019-04-28T04:39:01.729Z,7.32
2019-04-28T04:40:01.443Z,7.42
2019-04-28T04:41:01.444Z,7.35
2019-04-28T04:42:00.719Z,7.40
2019-04-28T04:43:03.222Z,7.32
2019-04-28T04:44:01.119Z,7.45
2019-04-28T04:45:00.679Z,7.35
2019-04-28T04:46:01.442Z,7.37
2019-04-28T04:47:01.024Z,7.35
2019-04-28T04:48:00.743Z,7.34
2019-04-28T04:49:04.261Z,7.40
2019-04-28T04:50:00.381Z,7.37
2019-04-28T04:51:00.742Z,7.52
2019-04-28T04:52:00.503Z,7.40
2019-04-28T04:53:02.530Z,7.43
2019-04-28T04:54:01.025Z,7.53
2019-04-28T04:55:01.266Z,7.50
2019-04-28T04:56:00.399Z,7.48
2019-04-28T04:57:00.174Z,7.52
2019-04-28T04:58:00.783Z,7.48
2019-04-28T04:59:02.847Z,7.52
2019-04-28T05:00:00.185Z,7.52
2019-04-28T05:01:00.678Z,7.50
2019-04-28T05:02:02.134Z,7.55
2019-04-28T05:03:00.825Z,7.52
2019-04-28T05:04:00.036Z,7.58
2019-04-28T05:05:00.498Z,7.58
2019-04-28T05:06:00.197Z,7.58
2019-04-28T05:06:59.963Z,7.55
2019-04-28T05:08:00.371Z,7.55
2019-04-28T05:09:00.039Z,7.55
2019-04-28T05:09:59.927Z,7.55
2019-04-28T05:11:00.067Z,7.50
2019-04-28T05:11:59.910Z,7.67
2019-04-28T05:13:00.238Z,7.61
2019-04-28T05:13:59.937Z,7.53
2019-04-28T05:15:00.519Z,7.68
2019-04-28T05:15:59.922Z,7.53
2019-04-28T05:17:00.807Z,7.61
2019-04-28T05:18:00.339Z,7.64
2019-04-28T05:19:00.197Z,7.67
2019-04-28T05:20:01.494Z,7.64
2019-04-28T05:20:59.828Z,7.64
2019-04-28T05:22:00.140Z,7.68
2019-04-28T05:23:00.634Z,7.63
2019-04-28T05:23:59.822Z,7.64
2019-04-28T05:25:00.113Z,7.67
2019-04-28T05:26:01.585Z,7.67
2019-04-28T05:27:00.753Z,7.64
2019-04-28T05:28:02.885Z,7.64
2019-04-28T05:28:59.747Z,7.64
2019-04-28T05:30:02.497Z,7.69
2019-04-28T05:31:00.726Z,7.72
2019-04-28T05:32:03.201Z,7.63
2019-04-28T05:33:00.355Z,7.72
2019-04-28T05:34:00.104Z,7.71
2019-04-28T05:35:00.115Z,7.74
2019-04-28T05:36:02.897Z,7.79
2019-04-28T05:37:00.709Z,7.80
2019-04-28T05:37:59.858Z,7.80
2019-04-28T05:39:00.158Z,7.83
2019-04-28T05:40:00.885Z,7.80
2019-04-28T05:41:02.406Z,7.86
2019-04-28T05:42:00.792Z,7.89
2019-04-28T05:43:00.868Z,7.82
2019-04-28T05:43:59.690Z,7.90
2019-04-28T05:45:00.041Z,7.83
2019-04-28T05:46:00.327Z,7.89
2019-04-28T05:46:59.664Z,7.90
2019-04-28T05:47:59.535Z,7.95
2019-04-28T05:48:59.979Z,7.97
2019-04-28T05:50:00.229Z,7.93
2019-04-28T05:50:59.947Z,7.95
2019-04-28T05:52:00.675Z,7.97
2019-04-28T05:53:00.555Z,8.05
2019-04-28T05:53:59.619Z,8.04
2019-04-28T05:54:59.871Z,8.07
2019-04-28T05:56:00.062Z,8.16
2019-04-28T05:56:59.707Z,8.01
2019-04-28T05:57:59.949Z,8.16
2019-04-28T05:59:00.603Z,8.10
2019-04-28T06:00:01.177Z,8.11
2019-04-28T06:01:00.326Z,8.11
2019-04-28T06:02:00.652Z,8.10
2019-04-28T06:03:00.661Z,8.18
2019-04-28T06:04:00.867Z,8.08
2019-04-28T06:04:59.958Z,8.16
2019-04-28T06:05:59.960Z,8.20
2019-04-28T06:06:59.795Z,8.18
2019-04-28T06:07:59.647Z,8.23
2019-04-28T06:08:59.831Z,8.33
2019-04-28T06:10:00.140Z,8.28
2019-04-28T06:10:59.896Z,8.19
2019-04-28T06:12:00.114Z,8.22
2019-04-28T06:12:59.726Z,8.25
2019-04-28T06:13:59.923Z,8.22
2019-04-28T06:15:00.113Z,8.28
2019-04-28T06:15:59.880Z,8.36
2019-04-28T06:17:00.470Z,8.37
2019-04-28T06:18:00.146Z,8.47
2019-04-28T06:19:00.045Z,8.50
2019-04-28T06:20:00.201Z,8.45
2019-04-28T06:20:59.174Z,8.47
2019-04-28T06:21:59.160Z,8.47
2019-04-28T06:22:59.165Z,8.52
2019-04-28T06:23:59.129Z,8.50
2019-04-28T06:24:59.153Z,8.70
2019-04-28T06:25:59.327Z,8.63
2019-04-28T06:26:59.273Z,8.73
2019-04-28T06:27:59.130Z,8.70
2019-04-28T06:28:59.082Z,8.70
2019-04-28T06:29:59.125Z,8.81
2019-04-28T06:30:59.069Z,8.83
2019-04-28T06:31:59.115Z,8.80
2019-04-28T06:33:07.645Z,8.80
2019-04-28T06:34:00.024Z,8.92
2019-04-28T06:34:59.051Z,9.13
2019-04-28T06:35:59.025Z,9.14
2019-04-28T06:36:59.046Z,9.32
2019-04-28T06:37:58.994Z,9.32
2019-04-28T06:38:58.980Z,9.39
2019-04-28T06:39:59.010Z,9.46
2019-04-28T06:40:58.992Z,9.53
2019-04-28T06:41:58.970Z,9.64
2019-04-28T06:42:58.933Z,9.71
2019-04-28T06:43:58.918Z,9.72
2019-04-28T06:44:58.958Z,9.89
2019-04-28T06:45:58.981Z,9.83
2019-04-28T06:46:58.890Z,9.84
2019-04-28T06:47:58.883Z,10.01
2019-04-28T06:48:58.867Z,9.91
2019-04-28T06:49:58.901Z,9.96
2019-04-28T06:50:58.870Z,10.09
2019-04-28T06:51:58.832Z,10.04
2019-04-28T06:52:58.823Z,10.34
2019-04-28T06:53:58.824Z,10.51
2019-04-28T06:54:58.819Z,10.64
2019-04-28T06:55:58.805Z,10.74
2019-04-28T06:56:58.777Z,10.99
2019-04-28T06:57:58.783Z,11.14
2019-04-28T06:58:59.535Z,11.36
2019-04-28T06:59:58.751Z,11.49
2019-04-28T07:00:58.818Z,11.44
2019-04-28T07:01:58.725Z,11.28
2019-04-28T07:02:58.739Z,11.37
2019-04-28T07:03:58.801Z,11.46
2019-04-28T07:05:01.945Z,11.44
2019-04-28T07:05:58.721Z,11.60
2019-04-28T07:06:58.669Z,11.64
2019-04-28T07:07:58.703Z,11.85
2019-04-28T07:08:58.678Z,11.75
2019-04-28T07:09:58.639Z,11.75
2019-04-28T07:10:58.676Z,11.73
2019-04-28T07:11:58.638Z,11.86
2019-04-28T07:12:58.610Z,11.83
2019-04-28T07:13:58.617Z,11.90
2019-04-28T07:14:58.589Z,12.01
2019-04-28T07:15:58.599Z,12.09
2019-04-28T07:16:58.573Z,12.29
2019-04-28T07:17:58.582Z,12.38
2019-04-28T07:18:58.545Z,12.70
2019-04-28T07:19:58.534Z,12.93
2019-04-28T07:20:58.546Z,12.95
2019-04-28T07:21:58.526Z,13.19
2019-04-28T07:22:58.654Z,13.52
2019-04-28T07:23:58.499Z,13.73
2019-04-28T07:24:58.475Z,13.78
2019-04-28T07:25:58.485Z,13.64
2019-04-28T07:26:58.457Z,13.42
2019-04-28T07:27:58.439Z,13.38
2019-04-28T07:28:58.559Z,13.12
2019-04-28T07:29:58.480Z,13.39
2019-04-28T07:30:58.425Z,13.55
2019-04-28T07:31:58.427Z,13.57
2019-04-28T07:32:58.389Z,13.91
2019-04-28T07:33:58.384Z,14.22
2019-04-28T07:34:58.387Z,14.37
2019-04-28T07:35:58.487Z,14.54
2019-04-28T07:36:58.349Z,14.98
2019-04-28T07:37:58.348Z,15.27
2019-04-28T07:38:58.323Z,15.56
2019-04-28T07:39:58.338Z,15.93
2019-04-28T07:40:58.312Z,15.96
2019-04-28T07:41:58.394Z,16.25
2019-04-28T07:42:58.282Z,16.02
2019-04-28T07:43:58.278Z,16.21
2019-04-28T07:44:58.341Z,16.53
2019-04-28T07:45:58.259Z,17.00
2019-04-28T07:46:58.272Z,17.28
2019-04-28T07:47:58.237Z,17.62
2019-04-28T07:48:58.229Z,17.38
2019-04-28T07:49:58.219Z,17.55
2019-04-28T07:50:58.192Z,17.79
2019-04-28T07:51:58.232Z,17.82
2019-04-28T07:52:58.200Z,17.95
2019-04-28T07:53:58.184Z,17.86
2019-04-28T07:54:58.235Z,17.63
2019-04-28T07:55:58.146Z,17.38
2019-04-28T07:56:58.161Z,17.28
2019-04-28T07:57:58.129Z,17.16
2019-04-28T07:58:58.116Z,17.15
2019-04-28T07:59:58.144Z,17.15
2019-04-28T08:00:58.089Z,17.15
2019-04-28T08:01:58.098Z,17.23
2019-04-28T08:02:58.072Z,17.46
2019-04-28T08:03:58.202Z,18.82
2019-04-28T08:04:58.048Z,19.26
2019-04-28T08:05:58.043Z,19.22
2019-04-28T08:06:58.058Z,19.37
2019-04-28T08:07:58.035Z,20.21
2019-04-28T08:08:58.038Z,20.59
2019-04-28T08:09:57.996Z,20.92
2019-04-28T08:10:57.981Z,21.12
2019-04-28T08:11:58.005Z,21.04
2019-04-28T08:12:57.966Z,21.47
2019-04-28T08:13:58.007Z,21.69
2019-04-28T08:14:57.936Z,21.69
2019-04-28T08:15:57.934Z,21.84
2019-04-28T08:16:58.017Z,21.83
2019-04-28T08:17:57.930Z,22.17
2019-04-28T08:18:57.900Z,21.98
2019-04-28T08:19:57.881Z,22.35
2019-04-28T08:20:57.873Z,23.02
2019-04-28T08:21:57.889Z,23.15
2019-04-28T08:22:57.849Z,23.25
2019-04-28T08:23:57.851Z,22.28
2019-04-28T08:24:57.838Z,21.59
2019-04-28T08:25:57.824Z,19.99
2019-04-28T08:26:57.858Z,20.39
2019-04-28T08:27:57.801Z,21.72
2019-04-28T08:28:57.838Z,23.04
2019-04-28T08:29:58.867Z,24.40
2019-04-28T08:30:57.773Z,25.62
2019-04-28T08:31:57.783Z,25.17
2019-04-28T08:32:57.757Z,23.61
2019-04-28T08:34:02.719Z,22.57
2019-04-28T08:34:58.733Z,24.35
2019-04-28T08:35:57.719Z,25.45
2019-04-28T08:36:57.728Z,25.98
2019-04-28T08:37:57.713Z,24.30
2019-04-28T08:38:57.692Z,22.57
2019-04-28T08:39:57.714Z,21.32
2019-04-28T08:40:57.682Z,20.58
2019-04-28T08:41:57.653Z,22.52
2019-04-28T08:42:57.657Z,24.24
2019-04-28T08:43:57.702Z,25.64
2019-04-28T08:44:57.633Z,25.94
2019-04-28T08:45:57.617Z,23.78
2019-04-28T08:46:57.634Z,21.61
2019-04-28T08:47:58.105Z,20.32
2019-04-28T08:48:57.585Z,19.68
2019-04-28T08:49:57.575Z,21.69
2019-04-28T08:50:57.566Z,21.29
2019-04-28T08:51:57.549Z,20.80
2019-04-28T08:52:57.623Z,22.94
2019-04-28T08:53:57.537Z,22.73
2019-04-28T08:54:57.521Z,22.07
2019-04-28T08:55:57.521Z,20.89
2019-04-28T08:56:57.510Z,20.13
2019-04-28T08:57:57.518Z,18.87
2019-04-28T08:58:57.548Z,17.78
2019-04-28T08:59:57.467Z,18.33
2019-04-28T09:00:57.455Z,20.87
2019-04-28T09:01:57.466Z,22.58
2019-04-28T09:02:57.459Z,23.69
2019-04-28T09:03:57.446Z,24.80
2019-04-28T09:04:57.469Z,25.60
2019-04-28T09:05:57.413Z,25.70
2019-04-28T09:06:57.395Z,25.38
2019-04-28T09:07:57.410Z,24.85
2019-04-28T09:08:57.435Z,24.13
2019-04-28T09:09:57.381Z,23.00
2019-04-28T09:10:57.357Z,21.64
2019-04-28T09:11:57.360Z,20.79
2019-04-28T09:12:57.332Z,20.42
2019-04-28T09:13:57.411Z,20.42
2019-04-28T09:14:57.323Z,20.72
2019-04-28T09:15:57.320Z,22.45
2019-04-28T09:16:57.300Z,23.27
2019-04-28T09:17:57.303Z,23.61
2019-04-28T09:18:57.298Z,23.85
2019-04-28T09:19:57.293Z,24.30
2019-04-28T09:20:57.272Z,24.09
2019-04-28T09:21:57.303Z,24.43
2019-04-28T09:22:57.260Z,24.60
2019-04-28T09:23:57.342Z,24.90
2019-04-28T09:24:57.227Z,23.16
2019-04-28T09:25:57.209Z,22.10
2019-04-28T09:26:57.287Z,21.50
2019-04-28T09:27:57.192Z,21.06
2019-04-28T09:28:57.174Z,20.62
2019-04-28T09:29:57.200Z,19.83
2019-04-28T09:30:57.157Z,19.32
2019-04-28T09:31:57.160Z,18.67
2019-04-28T09:32:57.143Z,18.41
2019-04-28T09:33:57.120Z,17.93
2019-04-28T09:34:57.154Z,17.90
2019-04-28T09:35:57.171Z,17.82
2019-04-28T09:36:57.085Z,17.79
2019-04-28T09:37:57.077Z,17.81
2019-04-28T09:38:57.087Z,17.87
2019-04-28T09:39:57.066Z,17.51
2019-04-28T09:40:57.232Z,17.75
2019-04-28T09:41:57.034Z,17.30
2019-04-28T09:42:57.058Z,17.46
2019-04-28T09:43:57.024Z,17.52
2019-04-28T09:44:57.010Z,17.21
2019-04-28T09:45:56.992Z,16.38
2019-04-28T09:46:57.010Z,16.43
2019-04-28T09:47:56.996Z,16.76
2019-04-28T09:48:56.959Z,17.28
2019-04-28T09:49:57.022Z,18.36
2019-04-28T09:50:56.938Z,18.47
2019-04-28T09:51:56.920Z,18.39
2019-04-28T09:52:56.916Z,18.08
2019-04-28T09:53:56.924Z,17.52
2019-04-28T09:54:56.889Z,17.07
2019-04-28T09:55:56.990Z,16.45
2019-04-28T09:56:57.278Z,16.21
2019-04-28T09:57:56.890Z,15.87
2019-04-28T09:58:56.857Z,15.69
2019-04-28T09:59:56.860Z,15.41
2019-04-28T10:00:56.837Z,15.31
2019-04-28T10:01:56.833Z,15.29
2019-04-28T10:02:56.813Z,15.16
2019-04-28T10:03:56.814Z,14.72
2019-04-28T10:04:56.786Z,14.75
2019-04-28T10:05:56.947Z,14.77
2019-04-28T10:06:56.761Z,14.55
2019-04-28T10:07:56.801Z,14.32
2019-04-28T10:08:56.744Z,14.17
2019-04-28T10:09:56.736Z,14.06
2019-04-28T10:10:56.738Z,13.85
2019-04-28T10:11:56.734Z,13.46
2019-04-28T10:12:56.749Z,13.22
2019-04-28T10:13:57.075Z,12.79
2019-04-28T10:14:56.682Z,12.52
2019-04-28T10:15:56.697Z,12.29
2019-04-28T10:16:56.668Z,12.19
2019-04-28T10:17:56.667Z,12.12
2019-04-28T10:18:56.637Z,12.02
2019-04-28T10:19:56.663Z,11.90
2019-04-28T10:20:56.630Z,11.76
2019-04-28T10:21:56.599Z,11.14
2019-04-28T10:22:56.670Z,10.67
2019-04-28T10:23:56.608Z,10.36
2019-04-28T10:24:56.565Z,10.30
2019-04-28T10:25:56.580Z,10.38
2019-04-28T10:26:56.542Z,10.52
2019-04-28T10:27:56.556Z,10.42
2019-04-28T10:28:56.536Z,10.44
2019-04-28T10:29:56.521Z,10.34
2019-04-28T10:30:56.620Z,10.45
2019-04-28T10:31:56.496Z,10.51
2019-04-28T10:32:56.501Z,10.53
2019-04-28T10:33:56.502Z,10.66
2019-04-28T10:34:56.475Z,10.63
2019-04-28T10:35:56.475Z,10.74
2019-04-28T10:36:56.460Z,10.64
2019-04-28T10:37:56.460Z,10.74
2019-04-28T10:38:56.438Z,10.61
2019-04-28T10:39:56.433Z,10.71
2019-04-28T10:40:56.392Z,10.78
2019-04-28T10:41:56.388Z,10.86
2019-04-28T10:42:56.399Z,11.09
2019-04-28T10:43:56.360Z,11.15
2019-04-28T10:44:56.359Z,11.04
2019-04-28T10:45:56.375Z,11.00
2019-04-28T10:46:56.325Z,10.81
2019-04-28T10:47:56.366Z,10.92
2019-04-28T10:48:56.308Z,10.92
2019-04-28T10:49:56.432Z,11.14
2019-04-28T10:50:56.295Z,11.25
2019-04-28T10:51:59.420Z,11.37
2019-04-28T10:52:56.293Z,11.36
2019-04-28T10:53:56.262Z,11.33
2019-04-28T10:54:56.248Z,11.46
2019-04-28T10:55:56.238Z,11.44
2019-04-28T10:56:56.246Z,11.42
2019-04-28T10:57:56.247Z,11.18
2019-04-28T10:58:56.207Z,11.14
2019-04-28T10:59:56.224Z,11.15
2019-04-28T11:00:56.199Z,11.18
2019-04-28T11:01:56.165Z,11.33
2019-04-28T11:02:56.167Z,11.36
2019-04-28T11:03:56.304Z,11.24
2019-04-28T11:05:07.775Z,11.36
2019-04-28T11:05:57.132Z,11.37
2019-04-28T11:06:56.135Z,11.51
2019-04-28T11:07:56.117Z,11.51
2019-04-28T11:08:56.159Z,11.43
2019-04-28T11:09:56.112Z,11.69
2019-04-28T11:10:56.068Z,11.91
2019-04-28T11:11:56.079Z,12.23
2019-04-28T11:12:56.077Z,12.49
2019-04-28T11:13:56.044Z,12.62
2019-04-28T11:14:56.042Z,12.70
2019-04-28T11:15:56.112Z,12.21
2019-04-28T11:16:56.015Z,11.94
2019-04-28T11:17:56.022Z,12.24
2019-04-28T11:18:55.995Z,12.31
2019-04-28T11:19:55.978Z,11.79
2019-04-28T11:20:55.967Z,11.98
2019-04-28T11:21:56.001Z,12.21
2019-04-28T11:22:55.953Z,11.98
2019-04-28T11:23:56.029Z,11.76
2019-04-28T11:24:55.919Z,11.95
2019-04-28T11:25:55.932Z,12.28
2019-04-28T11:26:55.936Z,12.46
2019-04-28T11:27:55.917Z,12.75
2019-04-28T11:28:55.879Z,12.47
2019-04-28T11:29:55.867Z,12.70
2019-04-28T11:30:55.849Z,12.28
2019-04-28T11:31:55.905Z,12.71
2019-04-28T11:32:55.832Z,13.23
2019-04-28T11:33:55.841Z,13.45
2019-04-28T11:34:55.828Z,13.46
2019-04-28T11:35:55.812Z,13.85
2019-04-28T11:36:55.787Z,13.79
2019-04-28T11:37:55.779Z,13.84
2019-04-28T11:38:55.791Z,13.81
2019-04-28T11:39:55.759Z,13.79
2019-04-28T11:40:55.788Z,14.03
2019-04-28T11:41:55.741Z,14.09
2019-04-28T11:42:55.760Z,14.14
2019-04-28T11:43:55.742Z,14.21
2019-04-28T11:44:55.727Z,13.97
2019-04-28T11:45:55.704Z,13.33
2019-04-28T11:46:55.735Z,13.19
2019-04-28T11:47:55.672Z,13.22
2019-04-28T11:48:55.710Z,12.95
2019-04-28T11:49:55.672Z,12.46
2019-04-28T11:50:55.646Z,12.47
2019-04-28T11:51:55.631Z,12.47
2019-04-28T11:52:55.630Z,12.53
2019-04-28T11:53:55.616Z,12.57
2019-04-28T11:54:55.770Z,12.57
2019-04-28T11:55:55.585Z,12.72
2019-04-28T11:56:55.597Z,12.78
2019-04-28T11:57:55.563Z,12.87
2019-04-28T11:58:55.605Z,12.82
2019-04-28T11:59:55.539Z,12.92
2019-04-28T12:00:55.534Z,12.90
2019-04-28T12:01:55.557Z,12.83
2019-04-28T12:02:55.548Z,13.10
2019-04-28T12:03:55.523Z,13.15
2019-04-28T12:04:55.606Z,13.36
2019-04-28T12:05:55.486Z,13.48
2019-04-28T12:06:55.479Z,13.29
2019-04-28T12:07:55.480Z,13.28
2019-04-28T12:08:55.477Z,13.39
2019-04-28T12:10:04.140Z,13.41
2019-04-28T12:10:56.461Z,13.32
2019-04-28T12:11:55.419Z,13.12
2019-04-28T12:12:55.402Z,13.20
2019-04-28T12:13:55.421Z,13.05
2019-04-28T12:14:55.472Z,13.08
2019-04-28T12:15:55.393Z,13.04
2019-04-28T12:16:55.359Z,13.17
2019-04-28T12:17:55.348Z,13.26
2019-04-28T12:18:55.340Z,13.28
2019-04-28T12:19:55.378Z,13.46
2019-04-28T12:20:55.340Z,13.55
2019-04-28T12:21:55.306Z,13.42
2019-04-28T12:22:55.293Z,13.52
2019-04-28T12:23:55.295Z,13.66
2019-04-28T12:24:55.379Z,13.88
2019-04-28T12:25:55.262Z,13.52
2019-04-28T12:26:55.289Z,13.45
2019-04-28T12:27:55.237Z,13.44
2019-04-28T12:28:55.249Z,13.36
2019-04-28T12:29:55.237Z,13.44
2019-04-28T12:30:55.223Z,13.49
2019-04-28T12:31:55.250Z,13.57
2019-04-28T12:32:55.209Z,13.67
2019-04-28T12:33:55.176Z,13.75
2019-04-28T12:34:55.174Z,13.77
2019-04-28T12:35:55.171Z,13.73
2019-04-28T12:36:55.160Z,13.96
2019-04-28T12:37:55.131Z,14.17
2019-04-28T12:38:55.204Z,14.10
2019-04-28T12:39:55.108Z,14.20
2019-04-28T12:40:55.113Z,14.50
2019-04-28T12:41:55.106Z,14.51
2019-04-28T12:42:55.178Z,14.62
2019-04-28T12:43:55.136Z,14.83
2019-04-28T12:44:55.114Z,14.91
2019-04-28T12:45:55.067Z,14.98
2019-04-28T12:46:55.113Z,15.11
2019-04-28T12:47:55.054Z,15.21
2019-04-28T12:48:55.013Z,15.27
2019-04-28T12:49:54.999Z,15.28
2019-04-28T12:50:55.009Z,15.31
2019-04-28T12:51:54.973Z,15.16
2019-04-28T12:52:54.998Z,15.09
2019-04-28T12:53:54.999Z,15.03
2019-04-28T12:54:54.967Z,14.96
2019-04-28T12:55:54.990Z,14.89
2019-04-28T12:56:54.940Z,14.83
2019-04-28T12:57:54.969Z,14.84
2019-04-28T12:58:54.908Z,14.92
2019-04-28T12:59:54.895Z,14.89
2019-04-28T13:00:54.884Z,15.03
2019-04-28T13:01:54.897Z,14.89
2019-04-28T13:02:54.897Z,14.96
2019-04-28T13:03:54.897Z,15.09
2019-04-28T13:04:54.841Z,14.98